Atmore, Alabama
Current Conditions -  °F | °C
As of 8:56 PM on Friday 24 Oct 2014 (Local Time) from KNSE Reporting Station
Clear Clear  
Wind Chill: 59°   Ceiling: Unl
Heat Index: 59°   Visibility: 10mi
Dew Point: 44°   Wind: 6mph
Humidity: 58%   Direction: 330°NNW
Pressure: 30.05"   Gusts: NA
Location:  31.03°N, 87.49°W
Report Text: KNSE 250156Z 33005KT 10SM CLR 15/07 A3005 RMK AO2 SLP163 T01500067 $
Loading
Personal Weather Stations






























Interactive Weather Map
Tropical Storm Tracking
New forecast layout! Learn more

10-Day Weather Forecast

Advertisements
Track Severe Weather on mobile